Time;durP1;ratioP1;P1;durP2;ratioP2;P2;SDS_P1;SDS_P2;PMS_P1;PMS_P2;Temp;Humidity;BMP_temperature;BMP_pressure;BME280_temperature;BME280_humidity;BME280_pressure;Samples;Min_cycle;Max_cycle;Signal;HPM_P1;HPM_P2
2021/03/04 00:02:19;;;;;;;78.25;51.22;;;8.30;99.90;;;;;;5135205;27;20023;-53
2021/03/04 00:04:44;;;;;;;90.30;53.92;;;8.30;99.90;;;;;;5117025;28;20035;-52
2021/03/04 00:07:10;;;;;;;85.10;51.95;;;8.30;99.90;;;;;;5098080;28;20389;-55
2021/03/04 00:09:36;;;;;;;84.20;55.35;;;8.30;99.90;;;;;;5132402;27;20055;-53
2021/03/04 00:12:02;;;;;;;104.35;63.47;;;8.20;99.90;;;;;;5137534;27;20454;-54
2021/03/04 00:14:28;;;;;;;82.30;53.20;;;8.20;99.90;;;;;;5118743;27;20170;-53
2021/03/04 00:16:54;;;;;;;95.07;60.65;;;;;;;;;;5137612;27;20144;-52
2021/03/04 00:19:20;;;;;;;85.97;55.72;;;;;;;;;;5132582;27;20038;-53
2021/03/04 00:21:46;;;;;;;98.13;62.70;;;;;;;;;;5097701;28;20043;-54
2021/03/04 00:24:12;;;;;;;105.93;69.85;;;;;;;;;;5117149;28;20424;-55
2021/03/04 00:26:38;;;;;;;103.85;68.32;;;;;;;;;;5097965;28;20039;-52
2021/03/04 00:29:04;;;;;;;100.97;65.55;;;;;;;;;;5116541;28;20098;-53
2021/03/04 00:31:30;;;;;;;100.47;61.35;;;;;;;;;;5116683;28;20031;-53
2021/03/04 00:33:56;;;;;;;87.05;57.95;;;;;;;;;;5097812;28;20131;-53
2021/03/04 00:36:22;;;;;;;86.47;57.28;;;;;;;;;;5116478;28;20020;-52
2021/03/04 00:38:49;;;;;;;85.90;54.55;;;;;;;;;;5062700;28;20035;-55
2021/03/04 00:41:15;;;;;;;74.25;51.50;;;;;;;;;;5097426;28;20027;-54
2021/03/04 00:43:41;;;;;;;84.03;54.42;;;;;;;;;;5116276;27;20104;-53
2021/03/04 00:46:07;;;;;;;83.78;57.00;;;;;;;;;;5116556;28;20066;-53
2021/03/04 00:48:33;;;;;;;87.57;57.47;;;;;;;;;;5097315;28;20054;-53
2021/03/04 00:50:59;;;;;;;84.28;54.70;;;;;;;;;;5116036;27;20031;-53
2021/03/04 00:53:25;;;;;;;78.55;52.65;;;;;;;;;;5122984;27;20019;-51
2021/03/04 00:55:51;;;;;;;77.35;53.17;;;;;;;;;;5097014;28;20600;-53
2021/03/04 00:58:17;;;;;;;74.82;47.22;;;;;;;;;;5116157;27;20114;-54
2021/03/04 01:00:43;;;;;;;61.50;43.03;;;;;;;;;;5134601;27;20063;-52
2021/03/04 01:03:09;;;;;;;60.40;41.47;;;;;;;;;;5110420;28;20122;-50
2021/03/04 01:05:36;;;;;;;59.53;40.42;;;8.00;99.90;;;;;;5115972;28;20491;-52
2021/03/04 01:08:02;;;;;;;55.15;37.88;;;;;;;;;;5115870;28;20028;-53
2021/03/04 01:10:31;;;;;;;61.58;41.42;;;;;;;;;;5096905;28;20109;-50
2021/03/04 01:12:57;;;;;;;53.92;38.90;;;;;;;;;;5121895;27;20027;-51
2021/03/04 01:15:23;;;;;;;61.20;39.10;;;;;;;;;;5117132;27;20031;-52
2021/03/04 01:17:49;;;;;;;53.45;38.28;;;;;;;;;;5136348;27;20038;-52
2021/03/04 01:20:17;;;;;;;57.22;39.42;;;7.70;99.90;;;;;;5116461;27;20035;-53
2021/03/04 01:22:44;;;;;;;62.35;41.65;;;7.60;99.90;;;;;;5116054;28;20420;-54
2021/03/04 01:25:10;;;;;;;58.35;42.03;;;7.60;99.90;;;;;;5115612;28;20024;-53
2021/03/04 01:27:36;;;;;;;59.38;42.08;;;7.60;99.90;;;;;;5115445;27;20158;-53
2021/03/04 01:30:05;;;;;;;62.63;42.17;;;7.60;99.90;;;;;;5115445;28;20047;-54
2021/03/04 01:32:30;;;;;;;74.95;44.03;;;7.60;99.90;;;;;;5115414;28;20386;-54
2021/03/04 01:34:56;;;;;;;68.72;45.83;;;7.60;99.90;;;;;;5115332;28;20054;-55
2021/03/04 01:37:22;;;;;;;66.15;46.47;;;7.60;99.90;;;;;;5096427;28;20047;-53
2021/03/04 01:39:47;;;;;;;67.20;46.20;;;7.60;99.90;;;;;;5115331;28;20046;-55
2021/03/04 01:42:13;;;;;;;65.40;44.67;;;7.60;99.90;;;;;;5115128;28;20024;-52
2021/03/04 01:44:39;;;;;;;66.65;46.22;;;7.60;99.90;;;;;;5115224;28;20110;-55
2021/03/04 01:47:06;;;;;;;72.22;49.05;;;7.70;99.90;;;;;;5115032;28;20131;-54
2021/03/04 01:49:32;;;;;;;71.45;48.72;;;7.80;99.90;;;;;;5061987;28;20046;-55
2021/03/04 01:51:58;;;;;;;71.20;49.20;;;7.80;99.90;;;;;;5114948;28;20034;-54
2021/03/04 01:54:24;;;;;;;77.35;52.17;;;7.80;99.90;;;;;;5115190;28;20031;-55
2021/03/04 01:56:50;;;;;;;80.38;52.88;;;7.80;99.90;;;;;;5114632;28;20168;-54
2021/03/04 01:59:16;;;;;;;78.18;52.70;;;7.90;99.90;;;;;;5117448;27;20520;-53
2021/03/04 02:01:42;;;;;;;82.15;53.58;;;7.90;99.90;;;;;;5123756;27;20386;-55
2021/03/04 02:04:08;;;;;;;81.80;54.30;;;8.00;99.90;;;;;;5114911;28;20035;-53
2021/03/04 02:06:41;;;;;;;100.82;58.78;;;8.00;99.90;;;;;;5114924;28;20028;-54
2021/03/04 02:09:10;;;;;;;101.53;63.58;;;8.00;99.90;;;;;;5114959;28;20015;-55
2021/03/04 02:11:43;;;;;;;99.00;63.00;;;8.00;99.90;;;;;;5095537;28;20058;-52
2021/03/04 02:14:13;;;;;;;100.72;62.83;;;8.00;99.90;;;;;;5114763;28;20019;-55
2021/03/04 02:16:44;;;;;;;106.75;64.05;;;8.00;99.90;;;;;;5114866;28;20493;-54
2021/03/04 02:19:44;;;;;;;98.07;62.67;;;8.00;99.90;;;;;;5114222;28;20028;-53
2021/03/04 02:22:33;;;;;;;101.55;63.92;;;8.10;99.90;;;;;;5114506;28;20160;-55
2021/03/04 02:25:27;;;;;;;94.95;60.42;;;8.10;99.90;;;;;;5095362;28;20454;-54
2021/03/04 02:27:55;;;;;;;93.10;61.15;;;8.10;99.90;;;;;;5114267;28;20055;-53
2021/03/04 02:30:27;;;;;;;87.22;60.38;;;8.10;99.90;;;;;;5114460;28;20042;-57
2021/03/04 02:32:59;;;;;;;86.78;57.53;;;8.10;99.90;;;;;;5095192;28;20351;-52
2021/03/04 02:35:31;;;;;;;82.82;56.55;;;8.00;99.90;;;;;;5114302;28;20028;-52
2021/03/04 02:38:10;;;;;;;83.15;55.20;;;8.10;99.90;;;;;;5114246;28;20027;-55
2021/03/04 02:40:38;;;;;;;81.50;54.47;;;8.10;99.90;;;;;;5114328;28;20027;-51
2021/03/04 02:43:10;;;;;;;83.28;54.60;;;8.00;99.90;;;;;;5114290;28;20027;-54
2021/03/04 02:45:36;;;;;;;75.45;50.60;;;7.90;99.90;;;;;;5114230;28;20035;-51
2021/03/04 02:48:03;;;;;;;84.28;54.60;;;7.80;99.90;;;;;;5113548;28;20050;-54
2021/03/04 02:50:30;;;;;;;75.30;49.88;;;7.80;99.90;;;;;;5114577;28;20020;-55
2021/03/04 02:52:57;;;;;;;71.72;47.97;;;7.80;99.90;;;;;;5078411;28;20035;-55
2021/03/04 02:55:23;;;;;;;66.70;45.85;;;7.70;99.90;;;;;;5113926;28;20035;-56
2021/03/04 02:57:50;;;;;;;66.68;45.47;;;7.70;99.90;;;;;;5114293;28;20102;-52
2021/03/04 03:00:23;;;;;;;59.20;42.92;;;7.70;99.90;;;;;;5118086;28;20054;-53
2021/03/04 03:02:49;;;;;;;62.58;43.75;;;7.70;99.90;;;;;;5121405;27;20035;-51
2021/03/04 03:05:18;;;;;;;61.75;44.72;;;7.70;99.90;;;;;;5114059;28;20019;-55
2021/03/04 03:07:45;;;;;;;61.28;41.42;;;7.80;99.90;;;;;;5114055;28;20332;-54
2021/03/04 03:10:13;;;;;;;62.38;40.47;;;7.70;99.90;;;;;;5134286;27;20023;-51
2021/03/04 03:12:42;;;;;;;59.42;40.45;;;7.80;99.90;;;;;;5134429;27;20027;-53
2021/03/04 03:15:10;;;;;;;57.55;41.05;;;7.80;99.90;;;;;;5123391;27;20058;-52
2021/03/04 03:17:37;;;;;;;56.40;40.15;;;7.90;99.90;;;;;;5061488;28;20440;-54
2021/03/04 03:20:08;;;;;;;55.75;39.92;;;7.90;99.90;;;;;;5094745;28;20036;-51
2021/03/04 03:22:34;;;;;;;53.80;37.40;;;7.90;99.90;;;;;;5114254;28;20024;-51
2021/03/04 03:25:02;;;;;;;55.33;35.75;;;7.90;99.90;;;;;;5113367;28;20411;-54
2021/03/04 03:27:27;;;;;;;46.35;33.85;;;7.90;99.90;;;;;;5113896;28;20486;-55
2021/03/04 03:29:54;;;;;;;46.88;33.20;;;7.90;99.90;;;;;;5113822;28;20059;-53
2021/03/04 03:32:22;;;;;;;45.75;34.47;;;7.90;99.90;;;;;;5113578;28;20035;-52
2021/03/04 03:34:49;;;;;;;48.35;32.40;;;7.90;99.90;;;;;;5114290;28;20479;-54
2021/03/04 03:37:16;;;;;;;45.63;33.08;;;7.90;99.90;;;;;;5113715;28;20031;-51
2021/03/04 03:39:43;;;;;;;46.78;33.05;;;7.90;99.90;;;;;;5113344;28;20042;-52
2021/03/04 03:42:09;;;;;;;40.90;29.10;;;7.90;99.90;;;;;;5113801;28;20455;-54
2021/03/04 03:44:35;;;;;;;39.70;28.60;;;8.00;99.90;;;;;;5113796;28;20028;-52
2021/03/04 03:47:05;;;;;;;42.45;28.73;;;8.00;99.90;;;;;;5078025;28;20040;-54
2021/03/04 03:49:31;;;;;;;40.00;27.88;;;8.00;99.90;;;;;;5113957;28;20019;-51
2021/03/04 03:52:00;;;;;;;53.47;27.00;;;8.00;99.90;;;;;;5113626;28;20525;-52
2021/03/04 03:54:27;;;;;;;31.25;23.35;;;8.10;99.90;;;;;;5113497;28;20034;-53
2021/03/04 03:56:55;;;;;;;36.90;24.10;;;8.10;99.80;;;;;;5113766;28;20473;-52
2021/03/04 03:59:22;;;;;;;31.50;23.67;;;8.10;99.60;;;;;;5113558;28;20122;-55
2021/03/04 04:01:49;;;;;;;30.45;21.85;;;8.20;99.40;;;;;;5113691;28;20032;-52
2021/03/04 04:04:15;;;;;;;38.35;23.50;;;8.20;99.40;;;;;;5113805;28;20019;-52
2021/03/04 04:06:43;;;;;;;38.78;23.70;;;8.20;99.60;;;;;;5113951;28;20061;-55
2021/03/04 04:09:09;;;;;;;31.90;21.02;;;8.20;99.30;;;;;;5113582;28;20031;-53
2021/03/04 04:11:36;;;;;;;32.50;22.35;;;8.20;99.10;;;;;;5113455;28;20020;-51
2021/03/04 04:14:03;;;;;;;28.88;20.60;;;8.20;99.00;;;;;;5114712;28;20035;-52
2021/03/04 04:16:29;;;;;;;31.20;21.73;;;8.30;98.80;;;;;;5117240;28;20424;-54
2021/03/04 04:18:56;;;;;;;28.17;20.95;;;8.30;98.40;;;;;;5117040;28;20070;-51
2021/03/04 04:21:22;;;;;;;33.95;20.67;;;8.30;98.20;;;;;;5119825;27;20027;-51
2021/03/04 04:23:49;;;;;;;29.35;21.15;;;8.20;98.10;;;;;;5126208;27;20031;-55
2021/03/04 04:26:16;;;;;;;29.38;20.65;;;8.30;97.90;;;;;;5117244;28;20031;-54
2021/03/04 04:28:43;;;;;;;30.52;21.38;;;8.30;97.70;;;;;;5116979;28;20027;-52
2021/03/04 04:31:10;;;;;;;27.52;21.05;;;8.30;97.50;;;;;;5116363;28;20035;-52
2021/03/04 04:33:35;;;;;;;32.25;21.67;;;8.30;97.40;;;;;;5116763;28;20092;-51
2021/03/04 04:36:01;;;;;;;27.63;20.38;;;8.30;97.20;;;;;;5116794;28;20491;-54
2021/03/04 04:38:27;;;;;;;27.77;20.55;;;8.40;97.00;;;;;;5116687;27;20066;-52
2021/03/04 04:40:53;;;;;;;27.95;20.38;;;8.30;96.90;;;;;;5116752;28;20455;-51
2021/03/04 04:43:19;;;;;;;29.10;20.27;;;8.30;96.80;;;;;;5116356;28;20028;-52
2021/03/04 04:45:45;;;;;;;30.80;19.85;;;8.20;96.80;;;;;;5116649;28;20031;-54
2021/03/04 04:48:11;;;;;;;31.45;20.80;;;8.20;96.90;;;;;;5116410;28;20130;-50
2021/03/04 04:50:37;;;;;;;26.63;18.85;;;8.20;96.80;;;;;;5116592;28;20046;-51
2021/03/04 04:53:03;;;;;;;35.50;19.65;;;8.20;96.70;;;;;;5116336;28;20023;-54
2021/03/04 04:55:29;;;;;;;28.73;19.55;;;8.20;96.70;;;;;;5116111;28;20068;-52
2021/03/04 04:57:54;;;;;;;26.02;19.45;;;8.20;96.70;;;;;;5116575;28;20023;-52
2021/03/04 05:00:21;;;;;;;29.92;19.80;;;8.20;96.70;;;;;;5116021;28;20067;-52
2021/03/04 05:02:47;;;;;;;29.00;19.98;;;8.20;96.60;;;;;;5115761;28;20058;-53
2021/03/04 05:05:13;;;;;;;30.38;21.13;;;8.20;96.60;;;;;;5114696;28;20023;-51
2021/03/04 05:07:39;;;;;;;31.08;19.20;;;8.20;96.50;;;;;;5116866;28;20027;-53
2021/03/04 05:10:07;;;;;;;30.30;20.88;;;8.20;96.50;;;;;;5119925;28;20045;-53
2021/03/04 05:12:33;;;;;;;29.52;19.95;;;8.30;96.50;;;;;;5068645;28;20126;-54
2021/03/04 05:14:59;;;;;;;28.48;20.60;;;8.30;96.30;;;;;;5119469;28;20371;-51
2021/03/04 05:17:24;;;;;;;39.30;19.88;;;8.30;96.20;;;;;;5118853;28;20023;-52
2021/03/04 05:19:50;;;;;;;34.25;20.17;;;8.30;96.10;;;;;;5119830;28;20521;-52
2021/03/04 05:22:16;;;;;;;27.70;19.48;;;8.30;96.10;;;;;;5118214;28;20020;-53
2021/03/04 05:24:42;;;;;;;31.50;20.98;;;8.30;96.00;;;;;;5115627;28;20106;-52
2021/03/04 05:27:08;;;;;;;33.25;19.30;;;8.30;96.10;;;;;;5116132;28;20108;-55
2021/03/04 05:29:34;;;;;;;32.05;20.45;;;8.30;96.30;;;;;;5115610;28;20031;-54
2021/03/04 05:31:59;;;;;;;36.33;20.65;;;8.30;96.40;;;;;;5126517;27;20030;-55
2021/03/04 05:34:25;;;;;;;30.20;19.48;;;8.30;96.30;;;;;;5133540;27;20019;-54
2021/03/04 05:36:51;;;;;;;32.42;20.85;;;8.40;96.10;;;;;;5136019;27;20031;-54
2021/03/04 05:39:17;;;;;;;30.50;19.75;;;8.40;95.90;;;;;;5131037;27;20052;-54
2021/03/04 05:41:44;;;;;;;31.27;20.77;;;8.50;95.70;;;;;;5126820;27;20038;-55
2021/03/04 05:44:10;;;;;;;32.67;20.55;;;8.50;95.50;;;;;;5116210;27;20024;-55
2021/03/04 05:46:36;;;;;;;33.70;20.45;;;8.60;95.60;;;;;;5120672;27;20027;-53
2021/03/04 05:49:03;;;;;;;43.08;20.60;;;8.70;95.30;;;;;;5118164;27;20450;-53
2021/03/04 05:51:37;;;;;;;34.38;21.23;;;8.70;95.20;;;;;;5115937;27;20027;-51
2021/03/04 05:54:06;;;;;;;33.80;19.67;;;8.70;94.90;;;;;;5086645;27;20059;-56
2021/03/04 05:56:35;;;;;;;30.20;20.27;;;8.80;94.60;;;;;;5115097;28;20023;-52
2021/03/04 05:59:01;;;;;;;30.10;20.23;;;8.90;94.60;;;;;;5131461;27;20031;-54
2021/03/04 06:01:28;;;;;;;33.92;20.17;;;8.90;94.60;;;;;;5135309;27;20076;-51
2021/03/04 06:03:54;;;;;;;28.45;18.67;;;9.00;94.20;;;;;;5116522;27;20171;-55
2021/03/04 06:06:20;;;;;;;29.38;19.55;;;9.00;94.20;;;;;;5114806;28;20480;-53
2021/03/04 06:08:46;;;;;;;80.18;49.22;;;9.10;94.10;;;;;;5127318;27;20458;-53
2021/03/04 06:11:11;;;;;;;34.70;21.98;;;9.30;95.00;;;;;;5135240;27;20027;-54
2021/03/04 06:13:37;;;;;;;37.00;20.10;;;9.50;94.30;;;;;;5135526;27;20027;-52
2021/03/04 06:16:03;;;;;;;34.58;21.55;;;9.80;93.60;;;;;;5105684;27;20050;-51
2021/03/04 06:18:39;;;;;;;32.70;22.52;;;10.00;93.30;;;;;;5054604;28;20079;-50
2021/03/04 06:21:27;;;;;;;30.52;20.88;;;10.30;93.30;;;;;;5114419;28;20107;-54
2021/03/04 06:23:54;;;;;;;32.65;22.02;;;10.60;92.10;;;;;;5114487;28;20023;-51
2021/03/04 06:26:37;;;;;;;34.47;22.33;;;10.80;91.60;;;;;;5114398;28;20069;-55
2021/03/04 06:29:14;;;;;;;33.33;21.58;;;11.20;92.00;;;;;;5114169;28;20020;-52
2021/03/04 06:31:41;;;;;;;33.53;20.52;;;11.60;90.50;;;;;;5114088;28;20020;-51
2021/03/04 06:34:19;;;;;;;31.75;21.77;;;11.80;87.80;;;;;;5114357;28;20028;-55
2021/03/04 06:36:52;;;;;;;33.10;21.70;;;12.30;86.80;;;;;;5113623;28;20458;-52
2021/03/04 06:39:18;;;;;;;32.55;21.95;;;12.70;84.30;;;;;;5113897;28;20233;-54
2021/03/04 06:41:44;;;;;;;36.22;23.35;;;13.10;83.00;;;;;;5114255;28;20027;-51
2021/03/04 06:44:09;;;;;;;38.63;27.33;;;13.40;82.80;;;;;;5098870;28;20119;-54
2021/03/04 06:46:45;;;;;;;44.55;30.63;;;13.50;82.00;;;;;;5122898;27;20106;-54
2021/03/04 06:49:11;;;;;;;47.45;34.20;;;13.80;81.40;;;;;;5123339;27;20028;-53
2021/03/04 06:51:44;;;;;;;96.32;57.42;;;14.00;80.00;;;;;;5123180;27;20019;-53
2021/03/04 06:54:21;;;;;;;126.45;76.97;;;;;;;;;;5123048;27;20023;-52
2021/03/04 06:56:47;;;;;;;101.35;73.13;;;;;;;;;;5117727;27;20036;-55
2021/03/04 06:59:13;;;;;;;47.95;32.20;;;;;;;;;;5099030;28;20040;-55
2021/03/04 07:01:40;;;;;;;33.05;23.95;;;;;;;;;;5113662;28;20027;-55
2021/03/04 07:04:15;;;;;;;47.20;32.70;;;15.70;92.60;;;;;;5113821;28;20023;-55
2021/03/04 07:06:41;;;;;;;45.83;28.90;;;;;;;;;;5113842;28;20043;-52
2021/03/04 07:09:07;;;;;;;42.15;31.88;;;16.00;95.50;;;;;;5112359;28;20428;-52
2021/03/04 07:11:36;;;;;;;42.88;30.27;;;16.20;70.90;;;;;;5113832;28;20049;-52
2021/03/04 07:14:04;;;;;;;39.13;29.08;;;16.30;71.10;;;;;;5113914;28;20546;-52
2021/03/04 07:16:33;;;;;;;39.53;27.85;;;;;;;;;;5113713;28;20023;-54
2021/03/04 07:19:00;;;;;;;42.22;27.63;;;17.50;66.50;;;;;;5113653;28;20121;-58
2021/03/04 07:21:29;;;;;;;43.45;27.48;;;18.00;64.70;;;;;;5094773;28;20372;-54
2021/03/04 07:23:55;;;;;;;33.92;25.88;;;18.50;65.60;;;;;;5113730;28;20050;-55
2021/03/04 07:26:21;;;;;;;29.15;20.35;;;19.10;61.10;;;;;;5094681;28;20031;-58
2021/03/04 07:28:50;;;;;;;62.05;38.80;;;19.60;67.30;;;;;;5113787;28;20016;-56
2021/03/04 07:31:16;;;;;;;47.13;30.42;;;20.00;62.00;;;;;;5113652;28;20370;-54
2021/03/04 07:33:45;;;;;;;71.50;40.35;;;19.90;57.40;;;;;;5094756;28;20038;-52
2021/03/04 07:36:12;;;;;;;65.45;40.47;;;20.00;58.80;;;;;;5113904;28;20035;-54
2021/03/04 07:38:39;;;;;;;44.88;30.00;;;20.10;58.90;;;;;;5113215;28;20059;-48
2021/03/04 07:41:14;;;;;;;43.15;28.77;;;18.50;60.50;;;;;;5113537;28;20098;-52
2021/03/04 07:43:59;;;;;;;36.67;23.48;;;18.00;59.80;;;;;;5113624;28;20030;-50
2021/03/04 07:46:42;;;;;;;76.03;29.52;;;17.70;59.20;;;;;;5094678;28;20040;-52
2021/03/04 07:49:08;;;;;;;49.35;35.10;;;18.60;61.50;;;;;;5116879;28;20073;-53
2021/03/04 07:51:42;;;;;;;55.33;36.05;;;19.70;59.60;;;;;;5117199;28;20031;-55
2021/03/04 07:54:08;;;;;;;45.67;34.20;;;;;;;;;;5117726;28;20451;-54
2021/03/04 07:56:34;;;;;;;42.28;34.22;;;;;;;;;;5117318;28;20046;-58
2021/03/04 07:59:10;;;;;;;30.50;23.50;;;;;;;;;;5097982;28;20096;-53
2021/03/04 08:01:36;;;;;;;30.70;21.70;;;;;;;;;;5117516;28;20035;-57
2021/03/04 08:04:02;;;;;;;30.77;23.85;;;22.70;50.10;;;;;;5117411;28;20053;-52
2021/03/04 08:06:29;;;;;;;28.73;20.98;;;;;;;;;;5098062;28;20432;-52
2021/03/04 08:08:55;;;;;;;31.55;21.38;;;;;;;;;;5117024;28;20421;-51
2021/03/04 08:11:28;;;;;;;29.58;20.55;;;22.10;51.30;;;;;;5117196;28;20107;-57
2021/03/04 08:13:55;;;;;;;28.85;21.30;;;22.50;51.30;;;;;;5056416;28;20511;-51
2021/03/04 08:16:20;;;;;;;39.10;20.23;;;22.40;51.20;;;;;;5074047;28;20051;-56
2021/03/04 08:18:56;;;;;;;24.98;20.42;;;;;;;;;;5073883;28;20029;-57
2021/03/04 08:21:23;;;;;;;31.83;21.88;;;23.10;62.30;;;;;;5073730;28;20032;-56
2021/03/04 08:23:49;;;;;;;82.72;53.13;;;23.00;77.20;;;;;;5074047;28;20049;-55
2021/03/04 08:26:22;;;;;;;27.38;18.83;;;;;;;;;;5057046;28;20102;-52
2021/03/04 08:28:49;;;;;;;28.65;19.63;;;;;;;;;;5073698;28;20032;-51
2021/03/04 08:31:15;;;;;;;26.42;19.92;;;23.60;47.80;;;;;;5073825;28;20024;-52
2021/03/04 08:33:41;;;;;;;25.20;19.55;;;23.30;48.00;;;;;;5073771;28;20045;-56
2021/03/04 08:36:07;;;;;;;31.92;21.98;;;23.60;47.60;;;;;;5073887;28;20098;-51
2021/03/04 08:38:40;;;;;;;29.48;21.95;;;23.90;47.70;;;;;;5056930;28;20084;-53
2021/03/04 08:41:06;;;;;;;28.17;21.13;;;23.70;45.70;;;;;;5073826;28;20467;-54
2021/03/04 08:43:32;;;;;;;44.38;24.23;;;24.20;46.10;;;;;;5073401;28;20032;-54
2021/03/04 08:46:02;;;;;;;38.22;22.20;;;24.40;45.30;;;;;;5114754;28;20031;-49
2021/03/04 08:48:29;;;;;;;31.90;23.92;;;24.50;45.30;;;;;;5116274;28;20055;-55
2021/03/04 08:51:00;;;;;;;29.27;22.52;;;;;;;;;;5116129;28;20028;-49
2021/03/04 08:53:28;;;;;;;35.33;24.23;;;25.00;49.50;;;;;;5116630;27;20430;-51
2021/03/04 08:55:56;;;;;;;30.98;23.08;;;25.20;44.50;;;;;;5123190;27;20040;-54
2021/03/04 08:58:24;;;;;;;37.03;26.77;;;25.30;44.10;;;;;;5046321;28;20040;-55
2021/03/04 09:00:54;;;;;;;34.47;24.48;;;;;;;;;;5073478;28;20574;-50
2021/03/04 09:03:22;;;;;;;32.03;22.80;;;25.40;44.20;;;;;;5073105;28;20044;-49
2021/03/04 09:05:48;;;;;;;34.85;22.33;;;;;;;;;;5073114;28;20024;-52
2021/03/04 09:08:15;;;;;;;33.83;24.90;;;25.60;82.90;;;;;;5073026;28;20482;-49
2021/03/04 09:10:48;;;;;;;27.05;22.10;;;25.80;44.10;;;;;;5072984;28;20031;-51
2021/03/04 09:13:24;;;;;;;26.10;20.55;;;26.20;42.90;;;;;;5039220;28;20115;-55
2021/03/04 09:15:53;;;;;;;26.92;21.13;;;;;;;;;;5072563;28;20511;-52
2021/03/04 09:18:19;;;;;;;29.25;21.38;;;27.00;41.90;;;;;;5072726;28;20080;-53
2021/03/04 09:20:46;;;;;;;27.60;18.95;;;26.90;43.10;;;;;;5072475;28;20043;-52
2021/03/04 09:23:13;;;;;;;35.85;20.67;;;27.10;41.90;;;;;;5072600;28;20048;-51
2021/03/04 09:25:39;;;;;;;27.95;20.45;;;27.50;41.20;;;;;;5072727;28;20040;-57
2021/03/04 09:28:11;;;;;;;27.77;19.33;;;26.80;41.50;;;;;;5072471;28;20116;-48
2021/03/04 09:30:37;;;;;;;23.98;18.95;;;26.80;41.10;;;;;;5115613;28;20019;-50
2021/03/04 09:33:03;;;;;;;26.08;19.38;;;27.10;42.00;;;;;;5115261;28;20034;-46
2021/03/04 09:35:29;;;;;;;27.27;17.67;;;27.50;42.10;;;;;;5115248;28;20032;-51
2021/03/04 09:38:05;;;;;;;17.00;12.90;;;28.10;40.60;;;;;;5114957;28;20027;-52
2021/03/04 09:40:30;;;;;;;14.35;11.18;;;26.40;37.40;;;;;;5115373;28;20036;-53
2021/03/04 09:42:57;;;;;;;12.50;9.27;;;25.60;38.60;;;;;;5115152;28;20103;-51
2021/03/04 09:45:23;;;;;;;10.98;9.20;;;24.40;37.30;;;;;;5115503;28;20024;-51
2021/03/04 09:47:51;;;;;;;10.45;9.25;;;23.90;37.60;;;;;;5115223;28;20482;-57
2021/03/04 09:50:24;;;;;;;13.55;9.77;;;24.70;36.90;;;;;;5115293;28;20027;-55
2021/03/04 09:52:59;;;;;;;14.85;9.77;;;24.60;37.60;;;;;;5115088;28;20073;-60
2021/03/04 09:55:25;;;;;;;11.20;8.98;;;25.30;37.60;;;;;;5115120;28;20058;-50
2021/03/04 09:57:51;;;;;;;13.30;9.85;;;24.30;36.90;;;;;;5130907;27;20031;-53
2021/03/04 10:00:21;;;;;;;25.15;9.75;;;24.40;38.10;;;;;;5135299;27;20031;-51
2021/03/04 10:02:48;;;;;;;11.90;9.77;;;24.50;37.10;;;;;;5135495;27;20031;-52
2021/03/04 10:05:23;;;;;;;12.98;9.43;;;24.60;38.50;;;;;;5135385;27;20076;-48
2021/03/04 10:07:51;;;;;;;14.65;9.45;;;24.60;37.60;;;;;;5135282;27;20039;-52
2021/03/04 10:10:21;;;;;;;11.88;9.80;;;23.50;37.50;;;;;;5135339;27;20012;-49
2021/03/04 10:13:05;;;;;;;13.32;10.15;;;23.10;37.60;;;;;;5135241;27;20118;-45
2021/03/04 10:15:35;;;;;;;14.52;9.75;;;23.00;38.50;;;;;;5135234;27;20034;-52
2021/03/04 10:18:05;;;;;;;12.13;10.27;;;23.40;38.20;;;;;;5135051;27;20458;-47
2021/03/04 10:20:31;;;;;;;13.90;10.05;;;23.50;38.60;;;;;;5135115;27;20062;-50
2021/03/04 10:22:57;;;;;;;14.48;11.50;;;23.80;38.70;;;;;;5115906;27;20066;-48
2021/03/04 10:25:23;;;;;;;17.52;10.35;;;24.30;37.90;;;;;;5135384;27;20415;-51
2021/03/04 10:27:50;;;;;;;27.98;11.77;;;23.50;37.60;;;;;;5134860;27;20037;-50
2021/03/04 10:30:16;;;;;;;13.55;10.50;;;24.10;38.60;;;;;;5135045;27;20015;-49
2021/03/04 10:32:42;;;;;;;11.85;10.02;;;24.00;37.40;;;;;;5135148;27;20023;-49
2021/03/04 10:35:14;;;;;;;11.95;10.52;;;24.90;37.60;;;;;;5134880;27;20110;-50
2021/03/04 10:37:40;;;;;;;11.65;10.25;;;24.90;36.60;;;;;;5099386;27;20035;-52
2021/03/04 10:40:08;;;;;;;16.40;9.98;;;25.40;37.50;;;;;;5134792;27;20035;-50
2021/03/04 10:42:34;;;;;;;14.55;9.52;;;24.30;36.70;;;;;;5081651;27;20031;-50
2021/03/04 10:45:00;;;;;;;14.63;9.70;;;24.00;37.00;;;;;;5115512;27;20038;-49
2021/03/04 10:47:27;;;;;;;13.38;10.43;;;24.30;36.20;;;;;;5134703;27;20058;-51
2021/03/04 10:49:53;;;;;;;11.45;9.05;;;24.50;37.20;;;;;;5134384;27;20472;-50
2021/03/04 10:52:20;;;;;;;12.48;10.05;;;24.10;35.40;;;;;;5115547;27;20058;-49
2021/03/04 10:54:46;;;;;;;14.43;10.77;;;23.90;36.70;;;;;;5134909;27;20080;-50
2021/03/04 10:57:11;;;;;;;12.40;10.80;;;23.70;37.20;;;;;;5134597;27;20031;-51
2021/03/04 10:59:37;;;;;;;26.67;19.17;;;23.90;36.80;;;;;;5134386;27;20031;-49
2021/03/04 11:02:03;;;;;;;15.32;10.93;;;24.50;37.50;;;;;;5134532;28;20034;-50
2021/03/04 11:04:29;;;;;;;15.80;10.40;;;23.80;37.10;;;;;;5134600;27;20040;-49
2021/03/04 11:06:54;;;;;;;12.77;9.73;;;24.40;37.10;;;;;;5132927;27;20108;-51
2021/03/04 11:09:20;;;;;;;14.20;12.00;;;24.80;36.20;;;;;;5134603;28;20030;-50
2021/03/04 11:11:46;;;;;;;16.92;13.35;;;25.20;36.60;;;;;;5134354;28;20023;-50
2021/03/04 11:14:11;;;;;;;11.65;9.55;;;24.60;34.40;;;;;;5115418;28;20454;-50
2021/03/04 11:16:37;;;;;;;19.80;14.68;;;25.50;35.20;;;;;;5115369;28;20031;-50
2021/03/04 11:19:04;;;;;;;12.63;9.63;;;25.50;34.60;;;;;;5134002;27;20084;-51
2021/03/04 11:21:30;;;;;;;13.55;9.90;;;26.10;35.10;;;;;;5134658;27;20072;-50
2021/03/04 11:23:56;;;;;;;14.20;12.20;;;25.60;34.90;;;;;;5137344;27;20495;-49
2021/03/04 11:26:22;;;;;;;17.08;12.18;;;26.10;34.80;;;;;;5138603;27;20477;-50
2021/03/04 11:28:48;;;;;;;34.25;20.75;;;25.70;35.30;;;;;;5138840;27;20015;-50
2021/03/04 11:31:14;;;;;;;26.83;17.50;;;25.80;34.80;;;;;;5138425;27;20374;-49
2021/03/04 11:33:39;;;;;;;11.65;10.13;;;24.80;34.30;;;;;;5138176;27;20031;-50
2021/03/04 11:36:05;;;;;;;14.02;10.82;;;25.50;34.10;;;;;;5138160;27;20465;-50
2021/03/04 11:38:31;;;;;;;36.53;23.88;;;25.60;33.70;;;;;;5138077;27;20031;-51
2021/03/04 11:40:57;;;;;;;15.57;11.00;;;25.90;34.20;;;;;;5137908;27;20042;-51
2021/03/04 11:43:22;;;;;;;40.65;29.48;;;25.50;34.90;;;;;;5138055;27;20065;-50
2021/03/04 11:45:48;;;;;;;15.77;12.20;;;24.60;34.40;;;;;;5119298;27;20453;-50
2021/03/04 11:48:14;;;;;;;11.45;9.75;;;24.10;35.10;;;;;;5137867;27;20050;-50
2021/03/04 11:50:40;;;;;;;15.65;11.50;;;24.60;36.20;;;;;;5138282;27;20062;-50
2021/03/04 11:53:08;;;;;;;12.45;10.18;;;24.40;35.40;;;;;;5138054;27;20436;-50
2021/03/04 11:55:34;;;;;;;14.13;10.20;;;24.60;34.50;;;;;;5137821;27;20031;-50
2021/03/04 11:58:00;;;;;;;13.45;9.70;;;25.30;34.70;;;;;;5137967;27;20039;-51
2021/03/04 12:00:26;;;;;;;12.63;10.48;;;24.40;35.40;;;;;;5118922;27;20206;-50
2021/03/04 12:02:52;;;;;;;17.45;12.00;;;24.80;36.30;;;;;;5137634;27;20454;-50
2021/03/04 12:05:18;;;;;;;14.77;10.88;;;24.20;36.30;;;;;;5137834;27;20023;-50
2021/03/04 12:07:44;;;;;;;15.05;11.43;;;24.10;36.50;;;;;;5137964;27;20478;-51
2021/03/04 12:10:11;;;;;;;13.10;10.55;;;23.60;35.70;;;;;;5137554;27;20036;-52
2021/03/04 12:12:37;;;;;;;12.18;10.82;;;23.60;36.70;;;;;;5101422;27;20386;-50
2021/03/04 12:15:04;;;;;;;13.63;9.02;;;23.70;36.20;;;;;;5137632;27;20105;-50
2021/03/04 12:17:30;;;;;;;10.68;8.68;;;24.00;34.10;;;;;;5137810;27;20031;-52
2021/03/04 12:19:56;;;;;;;14.32;7.65;;;23.70;34.60;;;;;;5118132;27;20047;-50
2021/03/04 12:22:22;;;;;;;12.82;8.43;;;23.70;34.10;;;;;;5137323;27;20027;-50
2021/03/04 12:24:47;;;;;;;15.43;8.80;;;23.80;35.40;;;;;;5137755;27;20031;-50
2021/03/04 12:27:13;;;;;;;12.30;7.50;;;23.60;34.80;;;;;;5137019;27;20071;-50
2021/03/04 12:29:39;;;;;;;12.73;8.05;;;23.50;34.80;;;;;;5137419;27;20043;-51
2021/03/04 12:32:05;;;;;;;11.07;7.40;;;23.50;34.80;;;;;;5137146;27;20076;-51
2021/03/04 12:34:32;;;;;;;12.98;8.05;;;23.80;34.00;;;;;;5135912;27;20027;-50
2021/03/04 12:36:57;;;;;;;12.05;9.10;;;23.60;33.60;;;;;;5137196;27;20031;-50
2021/03/04 12:39:23;;;;;;;25.58;14.90;;;23.80;34.60;;;;;;5136981;27;20039;-51
2021/03/04 12:41:49;;;;;;;12.57;8.60;;;23.60;33.60;;;;;;5117843;27;20035;-52
2021/03/04 12:44:15;;;;;;;53.70;26.65;;;24.10;34.20;;;;;;5137031;27;20450;-51
2021/03/04 12:46:42;;;;;;;33.40;18.33;;;24.40;33.20;;;;;;5136909;27;20063;-51
2021/03/04 12:49:08;;;;;;;103.90;43.80;;;24.50;34.50;;;;;;5136688;27;20547;-50